Anne Sibum — C4YC2 — position and weather

sailwx.info

Track history (hours):
 
Tides and Currents Weather Stations Pressure Air Temp Water Temp Dewpoint Dewpoint Depression Visibility Wind Speed Wind Dir Waves Ship Positions

Anne Sibum

Last reported at 2015-Jul-06 00:32 UTC. Time now 2015-Jul-06 01:00 UTC.
Position N 54°28' E 018°49'.

Length 151 m; draft 7.9 m.

Type: Ship (hazmat cat A). MMSI: 209322000.

Date/timePositionNaut miles runAvg speedWind from/ knotsBaromVisibWave heightAir tempDewpointWater temp
2015-Jul-06 00:32N 54°28' E 018°49'0 0.0
2015-Jul-05 23:31N 54°28' E 018°49'0 0.0
2015-Jul-05 22:31N 54°28' E 018°49'0 0.0
2015-Jul-05 21:33N 54°28' E 018°49'0 0.0
2015-Jul-05 20:33N 54°28' E 018°49'0 0.0
2015-Jul-05 19:32N 54°28' E 018°49'0 0.0
2015-Jul-05 18:32N 54°28' E 018°49'0 0.0
2015-Jul-05 17:31N 54°28' E 018°49'0 0.0
2015-Jul-05 16:31N 54°28' E 018°49'0 0.0
2015-Jul-05 15:31N 54°28' E 018°49'0 0.1
2015-Jul-05 14:33N 54°28' E 018°49'0 0.1
2015-Jul-05 13:33N 54°28' E 018°49'0 0.0
2015-Jul-05 12:32N 54°28' E 018°49'0 0.1
2015-Jul-05 11:32N 54°28' E 018°49'0 0.0
2015-Jul-05 10:32N 54°28' E 018°49'0 0.0
2015-Jul-05 09:31N 54°28' E 018°49'0 0.1
2015-Jul-05 08:31N 54°28' E 018°49'0 0.0
2015-Jul-05 07:33N 54°28' E 018°49'0 0.0
2015-Jul-05 06:33N 54°28' E 018°49'0 0.0
2015-Jul-05 05:32N 54°28' E 018°49'0 0.0
2015-Jul-05 04:32N 54°28' E 018°49'0 0.0
2015-Jul-05 03:31N 54°28' E 018°49'0 0.1
2015-Jul-05 02:31N 54°28' E 018°49'0 0.0
2015-Jul-05 01:31N 54°28' E 018°49'0 0.0
2015-Jul-05 00:33N 54°28' E 018°49'0 0.0
2015-Jul-04 23:33N 54°28' E 018°49'0 0.1
2015-Jul-04 22:32N 54°28' E 018°49'0 0.0
2015-Jul-04 21:32N 54°28' E 018°49'0 0.0
2015-Jul-04 20:31N 54°28' E 018°49'0 0.0
2015-Jul-04 19:31N 54°28' E 018°49'0 0.0
2015-Jul-04 18:31N 54°28' E 018°49'0 0.0
2015-Jul-04 17:30N 54°28' E 018°49'0 0.0
2015-Jul-04 16:30N 54°28' E 018°49'0 0.0
2015-Jul-04 15:29N 54°28' E 018°49'0 0.1
2015-Jul-04 14:33N 54°28' E 018°49'1110.5
2015-Jul-04 13:33N 54°35' E 019°02'8 8.4
2015-Jul-04 12:33N 54°43' E 018°57'7 6.7
2015-Jul-04 11:33N 54°49' E 018°52'7 7.2
2015-Jul-04 10:33N 54°53' E 018°42'7 6.8
2015-Jul-04 09:33N 54°55' E 018°31'8 7.5
2015-Jul-04 08:30N 54°55' E 018°17'10 8.0
2015-Jul-04 07:18N 54°55' E 018°00'6 8.0
2015-Jul-04 06:32N 54°56' E 017°50'8 7.8
2015-Jul-04 05:33N 54°55' E 017°36'8 7.8
2015-Jul-04 04:32N 54°53' E 017°23'8 7.9
2015-Jul-04 03:33N 54°51' E 017°10'8 7.9
2015-Jul-04 02:31N 54°49' E 016°56'31 7.9
2015-Jul-03 22:33N 54°44' E 016°02'8 7.8
2015-Jul-03 21:33N 54°43' E 015°49'8 8.1
2015-Jul-03 20:31N 54°42' E 015°35'8 8.0
2015-Jul-03 19:33N 54°41' E 015°21'11 7.9
2015-Jul-03 18:11N 54°39' E 015°03'6 8.0
2015-Jul-03 17:26N 54°38' E 014°53'7 8.1
2015-Jul-03 16:33N 54°37' E 014°41'32 7.8
2015-Jul-03 12:28N 54°42' E 013°46'7 8.1
2015-Jul-03 11:33N 54°45' E 013°34'24 7.7
2015-Jul-03 08:22N 54°44' E 012°52'6 7.7
2015-Jul-03 07:33N 54°43' E 012°41'8 8.2
2015-Jul-03 06:33N 54°39' E 012°29'8 7.8
2015-Jul-03 05:32N 54°34' E 012°18'8 7.9
2015-Jul-03 04:33N 54°27' E 012°13'7 7.2
2015-Jul-03 03:33N 54°25' E 012°01'8 8.1
2015-Jul-03 02:33N 54°25' E 011°47'8 7.8
2015-Jul-03 01:34N 54°28' E 011°35'8 7.6
2015-Jul-03 00:34N 54°31' E 011°24'7 7.0
2015-Jul-02 23:33N 54°34' E 011°13'6 6.3
2015-Jul-02 22:33N 54°35' E 011°02'8 7.7
2015-Jul-02 21:33N 54°34' E 010°49'8 8.3
2015-Jul-02 20:32N 54°33' E 010°34'8 8.5
2015-Jul-02 19:33N 54°30' E 010°21'10 9.8
2015-Jul-02 18:33N 54°22' E 010°11'1 1.4
2015-Jul-02 17:33N 54°22' E 010°08'6 5.9
2015-Jul-02 16:33N 54°21' E 009°58'8 7.7
2015-Jul-02 15:33N 54°21' E 009°45'8 7.7
2015-Jul-02 14:34N 54°15' E 009°37'6 5.7
2015-Jul-02 13:34N 54°11' E 009°29'7 7.3
2015-Jul-02 12:33N 54°06' E 009°20'8 8.3
2015-Jul-02 11:33N 53°58' E 009°16'6 6.2
2015-Jul-02 10:33N 53°54' E 009°09'2 1.6
2015-Jul-02 09:33N 53°53' E 009°06'9 9.3
2015-Jul-02 08:33N 53°50' E 008°51'1312.7
2015-Jul-02 07:33N 53°58' E 008°34'1413.0
2015-Jul-02 06:27N 53°59' E 008°10'2110.7
2015-Jul-02 04:27N 53°39' E 008°24'5 0.6
2015-Jul-01 20:33N 53°36' E 008°31'0 0.0
2015-Jul-01 19:32N 53°36' E 008°31'0 0.0
2015-Jul-01 17:13N 53°36' E 008°31'0 0.0
2015-Jul-01 16:31N 53°36' E 008°31'0 0.0
2015-Jul-01 15:24N 53°36' E 008°31'0 0.0
2015-Jul-01 14:33N 53°36' E 008°31'0 0.0
2015-Jul-01 13:17N 53°36' E 008°31'0 0.5
2015-Jul-01 12:33N 53°36' E 008°30'1212.2
2015-Jul-01 11:34N 53°44' E 008°14'1612.4
2015-Jul-01 10:17N 53°54' E 007°53'3 1.6
2015-Jul-01 08:05N 53°51' E 007°49'5 7.5
2015-Jul-01 07:22N 53°49' E 007°57'810.0
2015-Jul-01 06:33N 53°42' E 008°04'7 7.4
2015-Jul-01 05:33N 53°35' E 008°09'0 0.0
2015-Jul-01 04:24N 53°35' E 008°09'0 0.0
2015-Jul-01 03:17N 53°35' E 008°09'0 0.0
2015-Jul-01 02:32N 53°35' E 008°09'0 0.0
2015-Jul-01 01:31N 53°35' E 008°09'0 0.0
2015-Jul-01 00:34N 53°35' E 008°09'0 0.0
2015-Jun-30 23:33N 53°35' E 008°09'0 0.0
2015-Jun-30 22:18N 53°35' E 008°09'0 0.0
2015-Jun-30 20:32N 53°35' E 008°09'0 0.0
2015-Jun-30 19:12N 53°35' E 008°09'4 6.7
2015-Jun-30 18:33N 53°39' E 008°07'1616.2
2015-Jun-30 17:33N 53°52' E 007°49'1110.8
2015-Jun-30 16:33N 53°59' E 007°36'1312.7
2015-Jun-30 15:34N 54°10' E 007°26'1312.9
2015-Jun-30 14:32N 54°22' E 007°15'1312.8
2015-Jun-30 13:33N 54°34' E 007°07'1613.0
2015-Jun-30 12:21N 54°49' E 007°03'1113.2
2015-Jun-30 11:33N 54°60' E 007°03'1313.4
2015-Jun-30 10:34N 55°13' E 007°03'1413.8
2015-Jun-30 09:33N 55°27' E 007°04'1615.7
2015-Jun-30 08:32N 55°43' E 007°04'15814.3
2015-Jun-29 21:32N 57°44' E 010°09'1313.5
2015-Jun-29 20:33N 57°47' E 010°33'1010.4
2015-Jun-29 19:34N 57°39' E 010°46'1515.0
2015-Jun-29 18:34N 57°24' E 010°44'1414.5
2015-Jun-29 17:33N 57°10' E 010°45'1513.3
2015-Jun-29 16:25N 56°55' E 010°51'1213.6
2015-Jun-29 15:31N 56°44' E 011°00'4213.7
2015-Jun-29 12:28N 56°03' E 010°45'1314.7
2015-Jun-29 11:33N 56°07' E 010°22'5 1.1
2015-Jun-29 07:07N 56°09' E 010°15'0 0.0
2015-Jun-29 04:05N 56°09' E 010°15'1 1.4
2015-Jun-29 03:34N 56°09' E 010°16'9 9.2
2015-Jun-29 02:34N 56°05' E 010°31'44 8.7
2015-Jun-28 21:28N 56°20' E 011°46'8 8.9
2015-Jun-28 20:33N 56°19' E 012°00'7 7.2
2015-Jun-28 19:33N 56°16' E 012°12'7 7.1
2015-Jun-28 18:33N 56°11' E 012°22'8 8.3
2015-Jun-28 17:33N 56°06' E 012°34'8 8.4
2015-Jun-28 16:33N 55°59' E 012°42'8 8.2
2015-Jun-28 15:33N 55°51' E 012°45'8 8.3
2015-Jun-28 14:33N 55°43' E 012°41'1010.3
2015-Jun-28 13:33N 55°33' E 012°43'9 8.5
2015-Jun-28 12:33N 55°24' E 012°42'6 6.5
2015-Jun-28 11:33N 55°18' E 012°44'7 7.4
2015-Jun-28 10:33N 55°16' E 012°57'7 7.3
2015-Jun-28 09:33N 55°15' E 013°09'4 3.5
2015-Jun-28 08:33N 55°14' E 013°16'3 3.2
2015-Jun-28 07:33N 55°14' E 013°21'5 5.2
2015-Jun-28 06:33N 55°15' E 013°30'1812.4
2015-Jun-28 05:07N 55°14' E 014°02'712.9
2015-Jun-28 04:33N 55°14' E 014°14'1312.7
2015-Jun-28 03:33N 55°23' E 014°30'1312.7
2015-Jun-28 02:33N 55°31' E 014°48'1312.9
2015-Jun-28 01:33N 55°37' E 015°07'1312.9
2015-Jun-28 00:33N 55°44' E 015°27'1612.8
2015-Jun-27 23:20N 55°52' E 015°51'29011.6
2015-Jun-26 22:25N 59°21' E 022°04'10 8.0
2015-Jun-26 21:09N 59°28' E 022°19'25 8.3
2015-Jun-26 18:08N 59°36' E 023°06'5 8.4
2015-Jun-26 17:33N 59°37' E 023°16'8 8.3
2015-Jun-26 16:33N 59°39' E 023°31'8 8.3
2015-Jun-26 15:33N 59°42' E 023°47'8 8.4
2015-Jun-26 14:33N 59°44' E 024°03'72 8.9
2015-Jun-26 06:28N 59°60' E 026°23'910.1
2015-Jun-26 05:33N 60°01' E 026°41'1110.4
2015-Jun-26 04:28N 59°60' E 027°03'  
Track history (hours):
 
Tides and Currents Weather Stations Pressure Air Temp Water Temp Dewpoint Dewpoint Depression Visibility Wind Speed Wind Dir Waves Ship Positions

Anne Sibum

Last reported at 2015-Jul-06 00:32 UTC. Time now 2015-Jul-06 01:00 UTC.
Position N 54°28' E 018°49'.

Length 151 m; draft 7.9 m.

Type: Ship (hazmat cat A). MMSI: 209322000.

Date/timePositionNaut miles runAvg speedWind from/ knotsBaromVisibWave heightAir tempDewpointWater temp
2015-Jul-06 00:32N 54°28' E 018°49'0 0.0
2015-Jul-05 23:31N 54°28' E 018°49'0 0.0
2015-Jul-05 22:31N 54°28' E 018°49'0 0.0
2015-Jul-05 21:33N 54°28' E 018°49'0 0.0
2015-Jul-05 20:33N 54°28' E 018°49'0 0.0
2015-Jul-05 19:32N 54°28' E 018°49'0 0.0
2015-Jul-05 18:32N 54°28' E 018°49'0 0.0
2015-Jul-05 17:31N 54°28' E 018°49'0 0.0
2015-Jul-05 16:31N 54°28' E 018°49'0 0.0
2015-Jul-05 15:31N 54°28' E 018°49'0 0.1
2015-Jul-05 14:33N 54°28' E 018°49'0 0.1
2015-Jul-05 13:33N 54°28' E 018°49'0 0.0
2015-Jul-05 12:32N 54°28' E 018°49'0 0.1
2015-Jul-05 11:32N 54°28' E 018°49'0 0.0
2015-Jul-05 10:32N 54°28' E 018°49'0 0.0
2015-Jul-05 09:31N 54°28' E 018°49'0 0.1
2015-Jul-05 08:31N 54°28' E 018°49'0 0.0
2015-Jul-05 07:33N 54°28' E 018°49'0 0.0
2015-Jul-05 06:33N 54°28' E 018°49'0 0.0
2015-Jul-05 05:32N 54°28' E 018°49'0 0.0
2015-Jul-05 04:32N 54°28' E 018°49'0 0.0
2015-Jul-05 03:31N 54°28' E 018°49'0 0.1
2015-Jul-05 02:31N 54°28' E 018°49'0 0.0
2015-Jul-05 01:31N 54°28' E 018°49'0 0.0
2015-Jul-05 00:33N 54°28' E 018°49'0 0.0
2015-Jul-04 23:33N 54°28' E 018°49'0 0.1
2015-Jul-04 22:32N 54°28' E 018°49'0 0.0
2015-Jul-04 21:32N 54°28' E 018°49'0 0.0
2015-Jul-04 20:31N 54°28' E 018°49'0 0.0
2015-Jul-04 19:31N 54°28' E 018°49'0 0.0
2015-Jul-04 18:31N 54°28' E 018°49'0 0.0
2015-Jul-04 17:30N 54°28' E 018°49'0 0.0
2015-Jul-04 16:30N 54°28' E 018°49'0 0.0
2015-Jul-04 15:29N 54°28' E 018°49'0 0.1
2015-Jul-04 14:33N 54°28' E 018°49'1110.5
2015-Jul-04 13:33N 54°35' E 019°02'8 8.4
2015-Jul-04 12:33N 54°43' E 018°57'7 6.7
2015-Jul-04 11:33N 54°49' E 018°52'7 7.2
2015-Jul-04 10:33N 54°53' E 018°42'7 6.8
2015-Jul-04 09:33N 54°55' E 018°31'8 7.5
2015-Jul-04 08:30N 54°55' E 018°17'10 8.0
2015-Jul-04 07:18N 54°55' E 018°00'6 8.0
2015-Jul-04 06:32N 54°56' E 017°50'8 7.8
2015-Jul-04 05:33N 54°55' E 017°36'8 7.8
2015-Jul-04 04:32N 54°53' E 017°23'8 7.9
2015-Jul-04 03:33N 54°51' E 017°10'8 7.9
2015-Jul-04 02:31N 54°49' E 016°56'31 7.9
2015-Jul-03 22:33N 54°44' E 016°02'8 7.8
2015-Jul-03 21:33N 54°43' E 015°49'8 8.1
2015-Jul-03 20:31N 54°42' E 015°35'8 8.0
2015-Jul-03 19:33N 54°41' E 015°21'11 7.9
2015-Jul-03 18:11N 54°39' E 015°03'6 8.0
2015-Jul-03 17:26N 54°38' E 014°53'7 8.1
2015-Jul-03 16:33N 54°37' E 014°41'32 7.8
2015-Jul-03 12:28N 54°42' E 013°46'7 8.1
2015-Jul-03 11:33N 54°45' E 013°34'24 7.7
2015-Jul-03 08:22N 54°44' E 012°52'6 7.7
2015-Jul-03 07:33N 54°43' E 012°41'8 8.2
2015-Jul-03 06:33N 54°39' E 012°29'8 7.8
2015-Jul-03 05:32N 54°34' E 012°18'8 7.9
2015-Jul-03 04:33N 54°27' E 012°13'7 7.2
2015-Jul-03 03:33N 54°25' E 012°01'8 8.1
2015-Jul-03 02:33N 54°25' E 011°47'8 7.8
2015-Jul-03 01:34N 54°28' E 011°35'8 7.6
2015-Jul-03 00:34N 54°31' E 011°24'7 7.0
2015-Jul-02 23:33N 54°34' E 011°13'6 6.3
2015-Jul-02 22:33N 54°35' E 011°02'8 7.7
2015-Jul-02 21:33N 54°34' E 010°49'8 8.3
2015-Jul-02 20:32N 54°33' E 010°34'8 8.5
2015-Jul-02 19:33N 54°30' E 010°21'10 9.8
2015-Jul-02 18:33N 54°22' E 010°11'1 1.4
2015-Jul-02 17:33N 54°22' E 010°08'6 5.9
2015-Jul-02 16:33N 54°21' E 009°58'8 7.7
2015-Jul-02 15:33N 54°21' E 009°45'8 7.7
2015-Jul-02 14:34N 54°15' E 009°37'6 5.7
2015-Jul-02 13:34N 54°11' E 009°29'7 7.3
2015-Jul-02 12:33N 54°06' E 009°20'8 8.3
2015-Jul-02 11:33N 53°58' E 009°16'6 6.2
2015-Jul-02 10:33N 53°54' E 009°09'2 1.6
2015-Jul-02 09:33N 53°53' E 009°06'9 9.3
2015-Jul-02 08:33N 53°50' E 008°51'1312.7
2015-Jul-02 07:33N 53°58' E 008°34'1413.0
2015-Jul-02 06:27N 53°59' E 008°10'2110.7
2015-Jul-02 04:27N 53°39' E 008°24'5 0.6
2015-Jul-01 20:33N 53°36' E 008°31'0 0.0
2015-Jul-01 19:32N 53°36' E 008°31'0 0.0
2015-Jul-01 17:13N 53°36' E 008°31'0 0.0
2015-Jul-01 16:31N 53°36' E 008°31'0 0.0
2015-Jul-01 15:24N 53°36' E 008°31'0 0.0
2015-Jul-01 14:33N 53°36' E 008°31'0 0.0
2015-Jul-01 13:17N 53°36' E 008°31'0 0.5
2015-Jul-01 12:33N 53°36' E 008°30'1212.2
2015-Jul-01 11:34N 53°44' E 008°14'1612.4
2015-Jul-01 10:17N 53°54' E 007°53'3 1.6
2015-Jul-01 08:05N 53°51' E 007°49'5 7.5
2015-Jul-01 07:22N 53°49' E 007°57'810.0
2015-Jul-01 06:33N 53°42' E 008°04'7 7.4
2015-Jul-01 05:33N 53°35' E 008°09'0 0.0
2015-Jul-01 04:24N 53°35' E 008°09'0 0.0
2015-Jul-01 03:17N 53°35' E 008°09'0 0.0
2015-Jul-01 02:32N 53°35' E 008°09'0 0.0
2015-Jul-01 01:31N 53°35' E 008°09'0 0.0
2015-Jul-01 00:34N 53°35' E 008°09'0 0.0
2015-Jun-30 23:33N 53°35' E 008°09'0 0.0
2015-Jun-30 22:18N 53°35' E 008°09'0 0.0
2015-Jun-30 20:32N 53°35' E 008°09'0 0.0
2015-Jun-30 19:12N 53°35' E 008°09'4 6.7
2015-Jun-30 18:33N 53°39' E 008°07'1616.2
2015-Jun-30 17:33N 53°52' E 007°49'1110.8
2015-Jun-30 16:33N 53°59' E 007°36'1312.7
2015-Jun-30 15:34N 54°10' E 007°26'1312.9
2015-Jun-30 14:32N 54°22' E 007°15'1312.8
2015-Jun-30 13:33N 54°34' E 007°07'1613.0
2015-Jun-30 12:21N 54°49' E 007°03'1113.2
2015-Jun-30 11:33N 54°60' E 007°03'1313.4
2015-Jun-30 10:34N 55°13' E 007°03'1413.8
2015-Jun-30 09:33N 55°27' E 007°04'1615.7
2015-Jun-30 08:32N 55°43' E 007°04'15814.3
2015-Jun-29 21:32N 57°44' E 010°09'1313.5
2015-Jun-29 20:33N 57°47' E 010°33'1010.4
2015-Jun-29 19:34N 57°39' E 010°46'1515.0
2015-Jun-29 18:34N 57°24' E 010°44'1414.5
2015-Jun-29 17:33N 57°10' E 010°45'1513.3
2015-Jun-29 16:25N 56°55' E 010°51'1213.6
2015-Jun-29 15:31N 56°44' E 011°00'4213.7
2015-Jun-29 12:28N 56°03' E 010°45'1314.7
2015-Jun-29 11:33N 56°07' E 010°22'5 1.1
2015-Jun-29 07:07N 56°09' E 010°15'0 0.0
2015-Jun-29 04:05N 56°09' E 010°15'1 1.4
2015-Jun-29 03:34N 56°09' E 010°16'9 9.2
2015-Jun-29 02:34N 56°05' E 010°31'44 8.7
2015-Jun-28 21:28N 56°20' E 011°46'8 8.9
2015-Jun-28 20:33N 56°19' E 012°00'7 7.2
2015-Jun-28 19:33N 56°16' E 012°12'7 7.1
2015-Jun-28 18:33N 56°11' E 012°22'8 8.3
2015-Jun-28 17:33N 56°06' E 012°34'8 8.4
2015-Jun-28 16:33N 55°59' E 012°42'8 8.2
2015-Jun-28 15:33N 55°51' E 012°45'8 8.3
2015-Jun-28 14:33N 55°43' E 012°41'1010.3
2015-Jun-28 13:33N 55°33' E 012°43'9 8.5
2015-Jun-28 12:33N 55°24' E 012°42'6 6.5
2015-Jun-28 11:33N 55°18' E 012°44'7 7.4
2015-Jun-28 10:33N 55°16' E 012°57'7 7.3
2015-Jun-28 09:33N 55°15' E 013°09'4 3.5
2015-Jun-28 08:33N 55°14' E 013°16'3 3.2
2015-Jun-28 07:33N 55°14' E 013°21'5 5.2
2015-Jun-28 06:33N 55°15' E 013°30'1812.4
2015-Jun-28 05:07N 55°14' E 014°02'712.9
2015-Jun-28 04:33N 55°14' E 014°14'1312.7
2015-Jun-28 03:33N 55°23' E 014°30'1312.7
2015-Jun-28 02:33N 55°31' E 014°48'1312.9
2015-Jun-28 01:33N 55°37' E 015°07'1312.9
2015-Jun-28 00:33N 55°44' E 015°27'1612.8
2015-Jun-27 23:20N 55°52' E 015°51'29011.6
2015-Jun-26 22:25N 59°21' E 022°04'10 8.0
2015-Jun-26 21:09N 59°28' E 022°19'25 8.3
2015-Jun-26 18:08N 59°36' E 023°06'5 8.4
2015-Jun-26 17:33N 59°37' E 023°16'8 8.3
2015-Jun-26 16:33N 59°39' E 023°31'8 8.3
2015-Jun-26 15:33N 59°42' E 023°47'8 8.4
2015-Jun-26 14:33N 59°44' E 024°03'72 8.9
2015-Jun-26 06:28N 59°60' E 026°23'910.1
2015-Jun-26 05:33N 60°01' E 026°41'1110.4
2015-Jun-26 04:28N 59°60' E 027°03'  

Dump ship's entire track history